Rutland, MA (01543)

6:27 AM EDT on September 21, 2014 (GMT -0400)
Rutland - In The Hills Of Worc County | Change Station
CLOSE
Current Station
Personal Weather Station
Location: Rutland, MA
Elevation: 1099 ft
Nearby Weather Stations

Elev 1099 ft 42.41 °N, 71.97 °W | Updated 8 seconds ago

Rain
Rain
62.1 °F
Feels Like 62.1 °F
N
1.6
Wind Variable Wind from SW
Gusts 2.2 mph

Today
High -- | Low -- °F
--% Chance of Precip.
Yesterday
High -- | Low -- °F
Precip. -- in
6:34 AM 6:46 PM
Waning Crescent, 7% visible
Pressure 29.97 in
Visibility 2.0 miles
Clouds Mostly Cloudy 200 ft
Overcast 800 ft
Dew Point 61 °F
Humidity 95%
Rainfall 0.39 in
Snow Depth Not available.
UV 0 out of 12
Pollen 3.50 out of 12
Ozone Good
PM2.5 Good
Flu Activity Not available.
SPECI KORH 211012Z VRB03KT 2SM +RA BR BKN002 OVC008 17/17 A2997

More Conditions Fewer Conditions

Pressure 29.97 in
Visibility 2.0 miles
Clouds Mostly Cloudy 200 ft
Overcast 800 ft
Dew Point 61 °F
Humidity 95%
Rainfall 0.39 in
Snow Depth Not available.
UV 0 out of 12
Pollen 3.50 out of 12
Ozone Good
PM2.5 Good
Flu Activity Not available.
SPECI KORH 211012Z VRB03KT 2SM +RA BR BKN002 OVC008 17/17 A2997

More Conditions Fewer Conditions

10-Day Weather Forecast

Almanac

Astronomy

Sep. 21, 2014 Rise Set
Actual Time 6:34 AM EDT 6:46 PM EDT
Civil Twilight 6:06 AM EDT 7:14 PM EDT
Nautical Twilight 5:33 AM EDT 7:47 PM EDT
Astronomical Twilight 4:59 AM EDT 8:21 PM EDT
Moon 4:02 AM EDT 5:23 PM EDT
Length of Visible Light 13h 08m
Length of Day
12h 12m
Tomorrow will be 2m 51s shorter.
Waning Crescent, 7% of the Moon is Illuminated
Today
Waning Crescent
Sep 24
New
Oct 1
First Quarter
Oct 8
Full
Oct 15
Last Quarter

Today's Extremes

State Highs State Lows

Community

WunderPhotos

Upload Photos

1,755,107 photos uploaded!

Nearby

Air Quality

  Air Quality AQ Index Pollutant
Yesterday Good
PM2.5
Yesterday Good
OZONE
Current Good
OZONE
Current Good
PM2.5
Sunday Good
PM2.5
Sunday Good
OZONE

Snow Depth

Station Depth Elevation
No new snow has been reported.

Earthquake Activity

City Distance Mag. Time & Date
No recent earthquake activity has been reported nearby.
Minimum magnitude displayed is 2.5.

Coastal Water Temperatures

Place Temperature
No Stations Reporting

Nearby Weather Stations